EGNH - Blackpool Airport
Distance from station: E 5mi, 14km
Updated: 08/17/2018 12:50pm
NOT Current
Mostly Cloudy
Mostly Cloudy
 Wind from SW
Wind: SW 23 mph , 37 km/h
Temperature: 61°F , 16°C
Dew Point: 59°F , 15°C
Humidity: 94%
Barometer: 30 inHg , 1016 hPa
Clouds: Mostly Cloudy
Visibility: 6 miles , 10 km
Cloud details: Few Clouds 1600 ft
Mostly Cloudy 3800 ft
2018/08/17 19:50 EGNH 171950Z 22020KT 9999 FEW016 BKN038 16/15 Q1016